Time;durP1;ratioP1;P1;durP2;ratioP2;P2;SDS_P1;SDS_P2;PMS_P1;PMS_P2;Temp;Humidity;BMP_temperature;BMP_pressure;BME280_temperature;BME280_humidity;BME280_pressure;Samples;Min_cycle;Max_cycle;Signal;HPM_P1;HPM_P2
2023/08/26 00:00:47;;;;;;;11.05;6.78;;;;;;;19.35;100.00;100806.91;4794251;29;20055;-68
2023/08/26 00:03:16;;;;;;;15.80;8.63;;;;;;;19.32;100.00;100791.00;4793407;29;20055;-66
2023/08/26 00:05:43;;;;;;;12.18;8.63;;;;;;;19.28;100.00;100790.00;4808967;29;20058;-67
2023/08/26 00:08:11;;;;;;;15.68;9.75;;;;;;;19.22;100.00;100789.38;4783100;29;20051;-67
2023/08/26 00:10:39;;;;;;;15.38;9.52;;;;;;;19.18;100.00;100793.13;4810451;29;20055;-66
2023/08/26 00:13:07;;;;;;;15.18;8.68;;;;;;;19.15;100.00;100789.88;4809760;29;20059;-67
2023/08/26 00:15:34;;;;;;;13.82;8.68;;;;;;;19.15;100.00;100791.84;4784282;29;20050;-67
2023/08/26 00:18:03;;;;;;;14.05;9.35;;;;;;;19.14;100.00;100795.72;4793528;29;20111;-66
2023/08/26 00:20:31;;;;;;;16.83;9.20;;;;;;;19.12;100.00;100792.47;4809980;29;20046;-66
2023/08/26 00:22:59;;;;;;;8.70;5.40;;;;;;;19.08;100.00;100792.31;4809527;29;20050;-68
2023/08/26 00:25:27;;;;;;;19.92;11.27;;;;;;;18.86;100.00;100796.06;4798273;29;20523;-67
2023/08/26 00:27:55;;;;;;;10.07;6.10;;;;;;;18.83;100.00;100798.66;4810125;29;20062;-65
2023/08/26 00:30:24;;;;;;;18.80;10.23;;;;;;;18.78;100.00;100798.81;4778943;29;20046;-66
2023/08/26 00:32:52;;;;;;;15.85;8.80;;;;;;;18.81;100.00;100798.16;4811150;29;20062;-66
2023/08/26 00:35:19;;;;;;;14.23;9.35;;;;;;;18.79;100.00;100805.97;4804596;29;20047;-67
2023/08/26 00:37:48;;;;;;;16.00;10.73;;;;;;;18.90;100.00;100808.06;4810445;29;20058;-66
2023/08/26 00:40:16;;;;;;;16.80;9.50;;;;;;;18.88;100.00;100804.84;4822094;29;20050;-65
2023/08/26 00:42:44;;;;;;;12.88;7.57;;;;;;;18.83;100.00;100806.94;4831537;29;20117;-62
2023/08/26 00:45:13;;;;;;;10.93;6.07;;;;;;;18.76;100.00;100812.97;4815480;29;20046;-66
2023/08/26 00:47:42;;;;;;;18.23;7.65;;;;;;;18.68;100.00;100809.00;4810124;29;20114;-66
2023/08/26 00:50:10;;;;;;;14.07;7.20;;;;;;;18.61;100.00;100808.66;4789512;29;20047;-58
2023/08/26 00:52:39;;;;;;;14.55;7.22;;;;;;;18.60;100.00;100804.28;4810041;29;20109;-63
2023/08/26 00:55:10;;;;;;;12.63;6.50;;;;;;;18.66;100.00;100811.25;4810712;29;20127;-62
2023/08/26 00:57:38;;;;;;;9.50;5.30;;;;;;;18.65;100.00;100812.41;4785924;29;20125;-67
2023/08/26 01:00:07;;;;;;;14.13;6.80;;;;;;;18.66;100.00;100807.69;4796416;29;20060;-68
2023/08/26 01:02:37;;;;;;;14.25;7.63;;;;;;;18.57;100.00;100815.97;4826346;29;20496;-66
2023/08/26 01:05:07;;;;;;;13.45;7.63;;;;;;;18.59;100.00;100819.25;4782112;29;20054;-68
2023/08/26 01:07:35;;;;;;;12.23;6.50;;;;;;;18.56;100.00;100814.34;4776970;29;20086;-67
2023/08/26 01:10:03;;;;;;;11.20;5.88;;;;;;;18.47;100.00;100825.38;4807592;29;20500;-67
2023/08/26 01:12:52;;;;;;;10.75;6.20;;;;;;;18.45;100.00;100810.28;4777757;29;20058;-66
2023/08/26 01:15:20;;;;;;;13.88;6.10;;;;;;;18.50;100.00;100810.13;4796327;29;20042;-67
2023/08/26 01:17:48;;;;;;;12.57;6.32;;;;;;;18.47;100.00;100813.50;4808220;29;20050;-67
2023/08/26 01:20:15;;;;;;;16.10;6.35;;;;;;;18.41;100.00;100820.31;4807441;29;20050;-67
2023/08/26 01:22:44;;;;;;;10.23;5.18;;;;;;;18.35;100.00;100813.31;4792090;29;22080;-67
2023/08/26 01:25:14;;;;;;;11.88;5.57;;;;;;;18.38;100.00;100818.22;4791762;29;20107;-67
2023/08/26 01:27:41;;;;;;;11.65;4.78;;;;;;;18.39;100.00;100819.84;4792797;29;20429;-67
2023/08/26 01:30:12;;;;;;;8.48;4.18;;;;;;;18.36;100.00;100814.97;4809866;29;20511;-67
2023/08/26 01:32:48;;;;;;;9.15;3.83;;;;;;;18.46;100.00;100815.47;4778946;29;20042;-67
2023/08/26 01:35:22;;;;;;;9.75;4.63;;;;;;;18.58;100.00;100822.31;4808726;29;20053;-67
2023/08/26 01:37:50;;;;;;;9.25;4.47;;;;;;;18.40;100.00;100826.97;4777229;29;20077;-67
2023/08/26 01:40:20;;;;;;;8.02;4.00;;;;;;;18.38;100.00;100824.53;4793202;29;20054;-67
2023/08/26 01:42:49;;;;;;;8.93;3.80;;;;;;;18.33;100.00;100821.09;4791889;29;20057;-67
2023/08/26 01:45:17;;;;;;;7.85;4.22;;;;;;;18.22;100.00;100824.16;4790456;29;20061;-67
2023/08/26 01:47:45;;;;;;;17.65;5.20;;;;;;;18.34;100.00;100828.25;4791770;29;20088;-67
2023/08/26 01:50:13;;;;;;;9.95;3.67;;;;;;;18.31;100.00;100816.72;4792451;29;20058;-66
2023/08/26 01:52:42;;;;;;;8.98;3.70;;;;;;;18.30;100.00;100823.41;4787049;29;20062;-67
2023/08/26 01:55:10;;;;;;;14.05;3.90;;;;;;;18.18;100.00;100831.44;4808410;29;20054;-67
2023/08/26 01:57:38;;;;;;;8.45;3.30;;;;;;;18.21;100.00;100832.78;4808056;29;20050;-66
2023/08/26 02:00:07;;;;;;;6.05;2.67;;;;;;;18.19;100.00;100826.75;4791945;29;20114;-68
2023/08/26 02:02:41;;;;;;;7.47;3.20;;;;;;;18.34;100.00;100833.78;4808455;29;20131;-67
2023/08/26 02:05:10;;;;;;;7.00;3.55;;;;;;;18.26;100.00;100835.38;4807074;29;20065;-67
2023/08/26 02:07:37;;;;;;;5.85;2.78;;;;;;;18.23;100.00;100827.72;4807156;29;20099;-67
2023/08/26 02:10:06;;;;;;;8.70;3.42;;;;;;;18.05;100.00;100838.69;4791737;29;20051;-67
2023/08/26 02:12:34;;;;;;;10.88;2.95;;;;;;;18.02;100.00;100828.31;4790986;29;20059;-67
2023/08/26 02:15:03;;;;;;;11.95;3.42;;;;;;;17.97;100.00;100835.91;4800593;29;20158;-67
2023/08/26 02:17:31;;;;;;;8.88;2.97;;;;;;;17.99;100.00;100831.72;4807387;29;20454;-66
2023/08/26 02:19:59;;;;;;;8.32;2.70;;;;;;;17.96;100.00;100829.56;4807238;29;20050;-67
2023/08/26 02:22:27;;;;;;;12.68;3.22;;;;;;;17.90;100.00;100827.28;4791917;29;20043;-67
2023/08/26 02:24:54;;;;;;;12.02;3.50;;;;;;;17.85;100.00;100828.25;4792125;29;20115;-65
2023/08/26 02:27:22;;;;;;;6.50;2.90;;;;;;;17.85;100.00;100831.81;4792796;29;20512;-66
2023/08/26 02:29:52;;;;;;;7.45;3.05;;;;;;;17.83;100.00;100836.00;4777781;29;20050;-66
2023/08/26 02:32:22;;;;;;;6.65;2.45;;;;;;;17.81;100.00;100828.06;4792022;29;20051;-66
2023/08/26 02:34:49;;;;;;;10.57;3.05;;;;;;;17.80;100.00;100829.19;4777172;29;20416;-65
2023/08/26 02:37:17;;;;;;;10.88;3.20;;;;;;;17.80;100.00;100826.44;4806260;29;20107;-66
2023/08/26 02:39:45;;;;;;;9.30;2.72;;;;;;;17.80;100.00;100826.44;4801984;29;20052;-67
2023/08/26 02:42:13;;;;;;;7.82;2.90;;;;;;;17.85;100.00;100828.25;4790610;29;20055;-66
2023/08/26 02:44:41;;;;;;;8.32;3.10;;;;;;;17.79;100.00;100823.94;4805620;29;20106;-67
2023/08/26 02:47:08;;;;;;;6.18;2.53;;;;;;;17.76;100.00;100813.56;4813495;29;20058;-66
2023/08/26 02:49:36;;;;;;;6.25;2.50;;;;;;;17.81;100.00;100814.25;4807243;29;20079;-66
2023/08/26 02:52:04;;;;;;;5.07;2.63;;;;;;;17.76;100.00;100819.88;4807927;29;20054;-67
2023/08/26 02:54:32;;;;;;;6.18;2.10;;;;;;;17.71;100.00;100822.78;4776275;29;20087;-67
2023/08/26 02:57:00;;;;;;;8.63;3.03;;;;;;;17.68;100.00;100818.72;4783868;29;20416;-66
2023/08/26 02:59:31;;;;;;;7.47;2.78;;;;;;;17.66;100.00;100811.91;4791262;29;20107;-66
2023/08/26 03:02:04;;;;;;;8.95;2.65;;;;;;;17.68;100.00;100812.41;4790599;29;20051;-66
2023/08/26 03:04:33;;;;;;;8.40;2.55;;;;;;;17.60;100.00;100821.41;4791793;29;20051;-64
2023/08/26 03:07:01;;;;;;;6.57;2.40;;;;;;;17.78;100.00;100825.91;4796404;29;20059;-66
2023/08/26 03:09:29;;;;;;;8.88;2.67;;;;;;;17.74;100.00;100816.63;4790475;29;20686;-66
2023/08/26 03:11:58;;;;;;;7.72;2.50;;;;;;;17.61;100.00;100829.38;4806625;29;20047;-66
2023/08/26 03:14:27;;;;;;;6.53;2.35;;;;;;;17.54;100.00;100828.19;4805679;29;20055;-66
2023/08/26 03:16:55;;;;;;;6.38;2.53;;;;;;;17.68;100.00;100834.44;4808299;29;20074;-67
2023/08/26 03:19:23;;;;;;;6.47;2.35;;;;;;;17.64;100.00;100833.44;4779771;29;20050;-66
2023/08/26 03:21:51;;;;;;;5.43;2.35;;;;;;;17.64;100.00;100833.44;4821766;29;20055;-65
2023/08/26 03:24:19;;;;;;;6.30;2.50;;;;;;;17.63;100.00;100834.56;4791414;29;20051;-67
2023/08/26 03:26:49;;;;;;;6.63;2.40;;;;;;;17.45;100.00;100836.41;4790372;29;20058;-66
2023/08/26 03:29:17;;;;;;;5.78;2.15;;;;;;;17.57;100.00;100833.06;4810640;29;20046;-67
2023/08/26 03:31:47;;;;;;;6.97;2.25;;;;;;;17.59;100.00;100841.84;4794252;29;20058;-67
2023/08/26 03:34:18;;;;;;;3.85;2.13;;;;;;;17.62;100.00;100836.50;4779254;29;20054;-67
2023/08/26 03:36:46;;;;;;;5.15;2.28;;;;;;;17.56;100.00;100842.47;4790778;29;20055;-68
2023/08/26 03:39:14;;;;;;;6.85;2.00;;;;;;;17.45;100.00;100839.97;4792157;29;20106;-68
2023/08/26 03:41:42;;;;;;;7.10;2.50;;;;;;;17.45;100.00;100842.72;4796891;29;20051;-66
2023/08/26 03:44:09;;;;;;;9.23;2.90;;;;;;;17.45;100.00;100839.16;4790602;29;20063;-66
2023/08/26 03:46:37;;;;;;;7.05;2.33;;;;;;;17.45;100.00;100841.91;4806689;29;20057;-65
2023/08/26 03:49:05;;;;;;;6.25;2.53;;;;;;;17.42;100.00;100843.34;4795005;29;20050;-66
2023/08/26 03:51:33;;;;;;;8.65;2.65;;;;;;;17.33;100.00;100842.47;4806010;29;20066;-66
2023/08/26 03:54:00;;;;;;;3.85;2.20;;;;;;;17.40;100.00;100844.78;4792259;29;20051;-68
2023/08/26 03:56:28;;;;;;;8.88;2.75;;;;;;;17.34;100.00;100852.38;4791288;29;20050;-67
2023/08/26 03:58:57;;;;;;;7.82;2.35;;;;;;;17.28;100.00;100848.09;4789904;29;20059;-67
2023/08/26 04:01:25;;;;;;;7.22;2.47;;;;;;;17.47;100.00;100850.69;4789012;29;20043;-68
2023/08/26 04:03:53;;;;;;;3.85;2.40;;;;;;;17.37;100.00;100839.91;4789215;29;20103;-67
2023/08/26 04:06:21;;;;;;;5.70;2.50;;;;;;;17.36;100.00;100844.59;4807435;29;20397;-67
2023/08/26 04:08:48;;;;;;;5.70;2.33;;;;;;;17.27;100.00;100848.41;4771515;30;20058;-67
2023/08/26 04:11:17;;;;;;;6.90;2.47;;;;;;;17.30;100.00;100848.63;4803034;29;20051;-67
2023/08/26 04:13:45;;;;;;;9.13;2.22;;;;;;;17.26;100.00;100850.34;4774673;29;20404;-67
2023/08/26 04:16:15;;;;;;;6.97;2.33;;;;;;;17.20;100.00;100851.63;4807659;29;20055;-67
2023/08/26 04:18:44;;;;;;;6.63;2.08;;;;;;;17.27;100.00;100853.91;4791854;29;20396;-68
2023/08/26 04:21:12;;;;;;;6.82;2.40;;;;;;;17.18;100.00;100856.63;4794557;29;20051;-66
2023/08/26 04:23:40;;;;;;;3.42;2.08;;;;;;;17.21;100.00;100856.00;4793168;29;20514;-66
2023/08/26 04:26:08;;;;;;;5.43;2.30;;;;;;;17.19;100.00;100849.97;4809109;29;20066;-65
2023/08/26 04:28:37;;;;;;;7.05;2.63;;;;;;;17.13;100.00;100862.25;4793901;29;20442;-66
2023/08/26 04:31:07;;;;;;;7.72;2.28;;;;;;;17.11;100.00;100861.75;4778492;29;20522;-66
2023/08/26 04:33:36;;;;;;;5.97;2.05;;;;;;;17.19;100.00;100864.56;4793698;29;20047;-67
2023/08/26 04:36:04;;;;;;;6.63;2.40;;;;;;;17.18;100.00;100864.88;4809506;29;20572;-67
2023/08/26 04:38:31;;;;;;;4.45;2.13;;;;;;;17.10;100.00;100868.34;4793019;29;20055;-66
2023/08/26 04:41:02;;;;;;;8.32;2.40;;;;;;;17.10;100.00;100868.34;4792213;29;20050;-68
2023/08/26 04:43:30;;;;;;;7.78;2.72;;;;;;;17.10;100.00;100863.69;4791998;29;20057;-67
2023/08/26 04:45:59;;;;;;;4.68;2.13;;;;;;;17.10;100.00;100871.94;4793482;29;20050;-66
2023/08/26 04:48:30;;;;;;;7.35;2.20;;;;;;;17.02;100.00;100873.47;4793310;29;20107;-66
2023/08/26 04:50:58;;;;;;;6.57;2.17;;;;;;;17.02;100.00;100878.97;4793773;29;20051;-69
2023/08/26 04:53:26;;;;;;;4.35;2.17;;;;;;;16.94;100.00;100876.19;4807052;29;20067;-65
2023/08/26 04:55:54;;;;;;;7.28;2.30;;;;;;;16.91;100.00;100882.28;4819651;29;20083;-66
2023/08/26 04:58:22;;;;;;;7.30;2.20;;;;;;;16.95;100.00;100883.28;4797980;29;20095;-66
2023/08/26 05:00:51;;;;;;;7.70;2.38;;;;;;;16.92;100.00;100895.75;4793852;29;20092;-66
2023/08/26 05:03:19;;;;;;;6.03;2.72;;;;;;;16.95;100.00;100900.63;4792899;29;20050;-67
2023/08/26 05:05:47;;;;;;;6.50;2.63;;;;;;;16.84;100.00;100910.25;4804680;29;20123;-67
2023/08/26 05:08:15;;;;;;;6.85;2.15;;;;;;;16.85;100.00;100905.53;4811745;29;20046;-66
2023/08/26 05:10:43;;;;;;;5.10;2.28;;;;;;;16.92;100.00;100904.00;4801286;29;20407;-66
2023/08/26 05:13:11;;;;;;;9.52;2.42;;;;;;;16.91;100.00;100901.53;4794482;29;20042;-66
2023/08/26 05:15:38;;;;;;;3.42;1.92;;;;;;;16.84;100.00;100904.72;4802673;29;20057;-59
2023/08/26 05:18:06;;;;;;;5.85;2.70;;;;;;;16.77;100.00;100909.81;4824433;29;20061;-60
2023/08/26 05:20:35;;;;;;;7.55;2.35;;;;;;;16.97;100.00;100903.88;4827725;29;20080;-65
2023/08/26 05:23:03;;;;;;;5.38;2.33;;;;;;;16.94;100.00;100910.00;4811373;29;20055;-62
2023/08/26 05:25:30;;;;;;;5.25;2.15;;;;;;;16.83;100.00;100909.41;4813240;29;20078;-62
2023/08/26 05:27:58;;;;;;;9.23;2.40;;;;;;;16.98;100.00;100910.19;4813123;29;20089;-60
2023/08/26 05:30:27;;;;;;;7.68;2.30;;;;;;;16.89;100.00;100918.38;4829105;29;20065;-60
2023/08/26 05:32:54;;;;;;;10.13;2.70;;;;;;;16.91;100.00;100916.13;4813401;29;20082;-63
2023/08/26 05:35:24;;;;;;;5.25;2.17;;;;;;;16.85;100.00;100920.09;4809144;29;20187;-66
2023/08/26 05:37:52;;;;;;;4.07;2.28;;;;;;;16.89;100.00;100917.56;4780476;29;20055;-67
2023/08/26 05:40:26;;;;;;;8.00;2.45;;;;;;;17.10;100.00;100916.00;4793593;29;20047;-67
2023/08/26 05:42:56;;;;;;;21.15;3.17;;;;;;;17.10;100.00;100912.41;4826996;29;20053;-67
2023/08/26 05:45:25;;;;;;;8.05;2.20;;;;;;;17.10;100.00;100913.25;4801979;29;20058;-67
2023/08/26 05:47:53;;;;;;;5.82;2.10;;;;;;;17.21;100.00;100914.63;4778154;29;20073;-67
2023/08/26 05:50:22;;;;;;;6.28;2.13;;;;;;;17.10;100.00;100918.75;4792099;29;20111;-67
2023/08/26 05:52:50;;;;;;;7.43;2.30;;;;;;;17.03;100.00;100901.84;4777181;29;20055;-67
2023/08/26 05:55:19;;;;;;;4.20;2.03;;;;;;;17.13;100.00;100901.59;4791208;29;20062;-67
2023/08/26 05:57:48;;;;;;;5.88;2.40;;;;;;;17.21;100.00;100905.56;4791727;29;20054;-67
2023/08/26 06:00:17;;;;;;;6.35;2.20;;;;;;;17.14;100.00;100907.91;4764776;29;20054;-67
2023/08/26 06:02:49;;;;;;;6.93;2.53;;;;;;;17.00;100.00;100914.28;4791643;29;20075;-66
2023/08/26 06:05:22;;;;;;;9.30;2.35;;;;;;;16.92;100.00;100906.75;4493969;29;10000937;-67
2023/08/26 06:07:53;;;;;;;6.47;2.50;;;;;;;17.06;100.00;100906.72;4801541;29;20265;-67
2023/08/26 06:10:23;;;;;;;4.85;2.47;;;;;;;17.26;100.00;100905.44;4803656;29;20062;-66
2023/08/26 06:12:51;;;;;;;5.53;2.35;;;;;;;17.16;100.00;100911.19;4773003;29;20058;-67
2023/08/26 06:15:21;;;;;;;8.38;2.70;;;;;;;17.00;100.00;100908.78;4803516;29;20514;-67
2023/08/26 06:17:49;;;;;;;5.97;2.35;;;;;;;17.07;100.00;100907.53;4781458;29;20716;-67
2023/08/26 06:20:22;;;;;;;5.47;2.50;;;;;;;17.11;100.00;100903.03;4785692;29;20464;-67
2023/08/26 06:22:50;;;;;;;5.40;2.20;;;;;;;17.25;100.00;100903.81;4800367;29;20054;-67
2023/08/26 06:25:18;;;;;;;7.22;2.53;;;;;;;17.38;100.00;100908.44;4820799;29;20054;-68
2023/08/26 06:27:47;;;;;;;9.23;2.50;;;;;;;17.27;100.00;100900.72;4798156;29;20547;-67
2023/08/26 06:30:15;;;;;;;6.18;2.40;;;;;;;17.43;100.00;100894.56;4808861;29;20068;-68
2023/08/26 06:32:43;;;;;;;7.60;2.78;;;;;;;17.34;100.00;100896.44;4802970;29;20497;-67
2023/08/26 06:35:12;;;;;;;4.70;2.20;;;;;;;17.26;100.00;100910.94;4791587;29;20046;-67
2023/08/26 06:37:40;;;;;;;7.68;3.10;;;;;;;17.20;100.00;100904.75;4819960;29;20480;-67
2023/08/26 06:40:10;;;;;;;5.25;2.40;;;;;;;17.19;100.00;100899.53;4819542;29;20047;-67
2023/08/26 06:42:38;;;;;;;4.60;2.28;;;;;;;17.15;100.00;100899.38;4786955;29;20123;-67
2023/08/26 06:45:10;;;;;;;5.68;2.47;;;;;;;17.38;100.00;100902.94;4783928;29;20043;-66
2023/08/26 06:47:39;;;;;;;7.85;2.78;;;;;;;17.48;100.00;100901.88;4802725;29;20500;-66
2023/08/26 06:50:08;;;;;;;6.43;2.90;;;;;;;17.50;100.00;100904.34;4786680;29;20090;-66
2023/08/26 06:52:35;;;;;;;9.18;2.90;;;;;;;17.50;100.00;100898.81;4821304;29;20563;-67
2023/08/26 06:55:04;;;;;;;6.60;2.60;;;;;;;17.45;100.00;100892.31;4806567;29;20051;-67
2023/08/26 06:57:32;;;;;;;7.88;3.17;;;;;;;17.34;100.00;100898.38;4774015;29;20396;-67
2023/08/26 07:00:00;;;;;;;7.18;2.50;;;;;;;17.39;100.00;100896.31;4803755;29;20057;-67
2023/08/26 07:02:28;;;;;;;8.55;3.05;;;;;;;17.48;100.00;100895.56;4788363;29;20058;-66
2023/08/26 07:04:56;;;;;;;7.47;3.03;;;;;;;17.44;100.00;100890.69;4790425;29;20063;-67
2023/08/26 07:07:24;;;;;;;8.18;2.95;;;;;;;17.58;100.00;100895.31;4799393;29;20054;-67
2023/08/26 07:09:51;;;;;;;8.40;3.45;;;;;;;17.44;100.00;100890.69;4800892;29;20055;-66
2023/08/26 07:12:19;;;;;;;5.05;2.60;;;;;;;17.43;100.00;100891.78;4803411;29;20069;-65
2023/08/26 07:14:47;;;;;;;7.07;2.72;;;;;;;17.61;100.00;100895.50;4787655;29;20062;-66
2023/08/26 07:17:17;;;;;;;8.15;3.13;;;;;;;17.52;100.00;100897.38;4803196;29;20055;-68
2023/08/26 07:19:45;;;;;;;7.72;2.78;;;;;;;17.49;100.00;100899.97;4795837;29;20065;-64
2023/08/26 07:22:13;;;;;;;8.30;3.45;;;;;;;17.53;100.00;100903.69;4787744;29;20055;-67
2023/08/26 07:24:41;;;;;;;8.15;3.22;;;;;;;17.65;100.00;100907.53;4779654;29;20131;-66
2023/08/26 07:27:10;;;;;;;6.25;2.85;;;;;;;17.66;100.00;100902.84;4801554;29;20073;-67
2023/08/26 07:29:38;;;;;;;5.05;2.50;;;;;;;17.70;100.00;100898.31;4815365;29;20063;-67
2023/08/26 07:32:06;;;;;;;7.40;2.92;;;;;;;17.91;100.00;100897.81;4787480;29;20063;-67
2023/08/26 07:34:34;;;;;;;5.40;2.63;;;;;;;17.83;100.00;100899.41;4801750;29;20061;-68
2023/08/26 07:37:02;;;;;;;5.55;2.35;;;;;;;17.88;100.00;100900.06;4799899;29;20054;-66
2023/08/26 07:39:30;;;;;;;7.35;2.80;;;;;;;17.88;100.00;100911.09;4817894;29;20194;-67
2023/08/26 07:41:58;;;;;;;13.40;3.70;;;;;;;18.02;100.00;100905.50;4789951;29;20515;-66
2023/08/26 07:44:25;;;;;;;7.75;2.80;;;;;;;17.98;100.00;100914.72;4804890;29;20043;-65
2023/08/26 07:46:53;;;;;;;11.27;3.92;;;;;;;17.98;100.00;100915.53;4807642;29;20051;-66
2023/08/26 07:49:23;;;;;;;8.52;3.33;;;;;;;18.03;100.00;100907.13;4800891;29;20051;-66
2023/08/26 07:51:51;;;;;;;9.27;3.33;;;;;;;17.91;100.00;100919.88;4794262;29;20070;-66
2023/08/26 07:54:19;;;;;;;8.48;2.92;;;;;;;17.76;100.00;100924.63;4807385;29;20050;-67
2023/08/26 07:56:46;;;;;;;8.88;2.75;;;;;;;17.67;100.00;100926.50;4787741;29;20434;-66
2023/08/26 07:59:14;;;;;;;7.60;3.03;;;;;;;17.60;100.00;100926.94;4793894;29;20051;-66
2023/08/26 08:01:42;;;;;;;8.18;2.90;;;;;;;17.61;100.00;100930.53;4794019;29;20061;-65
2023/08/26 08:04:09;;;;;;;7.60;2.55;;;;;;;17.65;100.00;100923.22;4780317;29;20508;-67
2023/08/26 08:06:37;;;;;;;8.68;3.05;;;;;;;17.63;100.00;100925.47;4808650;29;20054;-67
2023/08/26 08:09:05;;;;;;;8.73;3.00;;;;;;;17.90;100.00;100923.78;4787054;29;20057;-66
2023/08/26 08:11:33;;;;;;;10.10;2.75;;;;;;;17.91;100.00;100926.19;4793249;29;20051;-66
2023/08/26 08:14:01;;;;;;;10.02;2.97;;;;;;;17.81;100.00;100926.47;4793830;29;20054;-66
2023/08/26 08:16:30;;;;;;;5.30;2.10;;;;;;;17.87;100.00;100912.25;4816866;29;20492;-65
2023/08/26 08:18:58;;;;;;;6.50;2.20;;;;;;;18.05;100.00;100917.84;4777020;29;20051;-66
2023/08/26 08:21:25;;;;;;;7.30;2.60;;;;;;;18.15;100.00;100925.84;4795912;29;20051;-66
2023/08/26 08:23:54;;;;;;;8.88;2.67;;;;;;;18.10;100.00;100923.22;4790601;29;20054;-66
2023/08/26 08:26:22;;;;;;;9.98;2.50;;;;;;;17.99;100.00;100922.69;4808208;29;20053;-66
2023/08/26 08:28:49;;;;;;;6.60;2.10;;;;;;;18.19;100.00;100912.25;4808394;29;20061;-67
2023/08/26 08:31:17;;;;;;;6.43;2.38;;;;;;;18.20;100.00;100922.94;4809065;29;20065;-67
2023/08/26 08:33:45;;;;;;;5.72;2.38;;;;;;;18.27;100.00;100916.97;4792328;29;20047;-67
2023/08/26 08:36:12;;;;;;;9.88;2.53;;;;;;;18.35;100.00;100918.16;4807890;29;20535;-67
2023/08/26 08:38:40;;;;;;;7.53;2.60;;;;;;;18.50;100.00;100917.75;4809019;29;20065;-66
2023/08/26 08:41:08;;;;;;;7.43;2.60;;;;;;;18.47;100.00;100912.84;4775406;30;20464;-66
2023/08/26 08:43:37;;;;;;;6.75;1.98;;;;;;;18.55;100.00;100916.78;4774966;30;20070;-67
2023/08/26 08:46:05;;;;;;;6.75;2.47;;;;;;;18.63;100.00;100905.75;4803686;29;20051;-66
2023/08/26 08:48:34;;;;;;;6.72;2.25;;;;;;;18.43;100.00;100909.09;4778232;29;20051;-66
2023/08/26 08:51:03;;;;;;;5.45;2.00;;;;;;;18.40;100.00;100909.72;4808604;29;20070;-67
2023/08/26 08:53:31;;;;;;;6.38;2.33;;;;;;;18.30;100.00;100916.34;4791901;29;20063;-66
2023/08/26 08:56:03;;;;;;;5.18;2.25;;;;;;;18.20;100.00;100911.91;4825259;29;20058;-66
2023/08/26 08:58:31;;;;;;;7.90;1.98;;;;;;;18.44;100.00;100927.28;4818046;29;20057;-67
2023/08/26 09:00:59;;;;;;;8.05;2.53;;;;;;;18.47;99.34;100932.16;4835221;29;20054;-66
2023/08/26 09:03:28;;;;;;;5.72;2.20;;;;;;;18.46;100.00;100931.34;4809502;29;20058;-67
2023/08/26 09:05:56;;;;;;;9.40;2.70;;;;;;;18.40;99.87;100937.31;4831221;29;20046;-67
2023/08/26 09:08:24;;;;;;;5.18;2.08;;;;;;;18.30;99.15;100928.22;4845175;29;20418;-67
2023/08/26 09:10:52;;;;;;;6.38;2.08;;;;;;;18.53;100.00;100930.88;4831201;29;20507;-66
2023/08/26 09:13:20;;;;;;;19.55;2.38;;;;;;;18.68;100.00;100924.91;4824696;29;20050;-66
2023/08/26 09:15:48;;;;;;;5.90;2.33;;;;;;;18.72;99.20;100930.63;4827119;29;20051;-64
2023/08/26 09:18:18;;;;;;;4.95;2.13;;;;;;;18.69;100.00;100921.03;4507250;29;10000218;-66
2023/08/26 09:20:47;;;;;;;4.93;2.13;;;;;;;18.81;100.00;100925.13;4830303;29;20492;-66
2023/08/26 09:23:14;;;;;;;5.75;1.90;;;;;;;18.74;98.97;100926.41;4806306;29;20787;-66
2023/08/26 09:25:55;;;;;;;6.15;2.00;;;;;;;18.97;100.00;100928.28;4822526;29;20452;-66
2023/08/26 09:28:23;;;;;;;6.88;1.60;;;;;;;19.15;100.00;100930.75;4823644;29;20090;-66
2023/08/26 09:31:05;;;;;;;5.68;2.20;;;;;;;19.03;96.86;100927.81;4822327;29;20050;-67
2023/08/26 09:33:34;;;;;;;4.35;1.88;;;;;;;18.90;97.70;100937.03;4805704;29;20066;-66
2023/08/26 09:36:02;;;;;;;4.53;1.85;;;;;;;19.06;99.49;100932.69;4822758;29;20054;-65
2023/08/26 09:38:49;;;;;;;4.80;1.95;;;;;;;18.96;94.65;100946.78;4804123;29;20062;-66
2023/08/26 09:41:22;;;;;;;4.20;1.65;;;;;;;18.76;93.87;100941.81;4820958;29;20415;-66
2023/08/26 09:43:50;;;;;;;3.15;1.60;;;;;;;18.79;95.72;100936.53;4822226;29;20069;-67
2023/08/26 09:46:19;;;;;;;3.92;1.80;;;;;;;18.89;98.69;100935.41;4823626;29;20069;-66
2023/08/26 09:48:51;;;;;;;5.82;2.38;;;;;;;18.90;97.41;100934.25;4808677;29;20050;-66
2023/08/26 09:51:29;;;;;;;4.95;1.90;;;;;;;18.92;95.63;100937.53;4810051;29;20087;-66
2023/08/26 09:53:58;;;;;;;4.68;2.00;;;;;;;19.00;96.47;100939.50;4806976;29;20051;-64
2023/08/26 09:56:27;;;;;;;3.00;1.50;;;;;;;19.23;99.29;100948.44;4806354;29;20130;-65
2023/08/26 09:58:55;;;;;;;7.22;2.60;;;;;;;19.22;94.78;100946.00;4811701;29;20412;-67
2023/08/26 10:01:24;;;;;;;7.72;2.35;;;;;;;19.08;93.63;100940.66;4823418;29;20061;-66
2023/08/26 10:04:09;;;;;;;5.03;2.20;;;;;;;19.06;97.51;100938.19;4830679;29;20055;-60
2023/08/26 10:06:43;;;;;;;7.45;2.10;;;;;;;19.09;90.92;100943.06;4817725;29;20046;-64
2023/08/26 10:09:31;;;;;;;4.68;1.95;;;;;;;19.10;96.17;100944.72;4822720;29;20054;-62
2023/08/26 10:12:03;;;;;;;5.85;2.40;;;;;;;19.11;90.88;100943.56;4777682;30;20078;-66
2023/08/26 10:14:33;;;;;;;4.22;1.52;;;;;;;19.32;96.79;100949.28;4786687;30;20059;-68
2023/08/26 10:17:02;;;;;;;3.85;1.70;;;;;;;19.37;91.56;100954.66;4785827;30;20062;-68
2023/08/26 10:19:31;;;;;;;4.43;1.88;;;;;;;19.45;91.04;100957.72;4797365;29;20527;-68
2023/08/26 10:22:00;;;;;;;6.55;2.08;;;;;;;19.60;91.32;100943.41;4804386;29;20062;-68
2023/08/26 10:24:28;;;;;;;3.50;1.70;;;;;;;19.66;94.61;100953.19;4773574;29;20123;-67
2023/08/26 10:26:56;;;;;;;7.60;2.17;;;;;;;19.46;87.20;100951.91;4788032;29;20130;-67
2023/08/26 10:29:24;;;;;;;5.82;1.88;;;;;;;19.22;86.39;100954.28;4787888;29;20066;-67
2023/08/26 10:31:52;;;;;;;6.78;2.50;;;;;;;19.10;87.63;100958.53;4794025;29;20063;-67
2023/08/26 10:34:20;;;;;;;16.00;4.25;;;;;;;19.13;90.91;100949.56;4803769;29;20053;-68
2023/08/26 10:36:49;;;;;;;15.05;4.35;;;;;;;19.13;88.03;100949.56;4787620;29;20178;-68
2023/08/26 10:39:21;;;;;;;28.52;7.68;;;;;;;19.28;88.94;100955.78;4791919;29;20420;-67
2023/08/26 10:42:08;;;;;;;36.20;8.93;;;;;;;19.48;93.75;100948.78;4805373;29;20062;-67
2023/08/26 10:44:41;;;;;;;5.03;2.03;;;;;;;19.43;85.05;100951.72;4790547;29;20060;-66
2023/08/26 10:47:09;;;;;;;15.65;5.00;;;;;;;19.43;90.40;100952.53;4807218;29;20135;-67
2023/08/26 10:49:37;;;;;;;10.20;3.25;;;;;;;19.48;87.16;100946.84;4775834;29;20050;-67
2023/08/26 10:52:18;;;;;;;12.70;4.47;;;;;;;19.51;91.23;100946.19;4805971;29;20457;-67
2023/08/26 10:54:47;;;;;;;6.38;2.17;;;;;;;19.49;85.29;100945.72;4806946;29;20062;-68
2023/08/26 10:57:15;;;;;;;12.45;4.18;;;;;;;19.59;89.12;100939.03;4805378;29;20057;-68
2023/08/26 10:59:43;;;;;;;11.73;3.60;;;;;;;19.58;91.90;100938.22;4805418;29;20066;-68
2023/08/26 11:02:11;;;;;;;8.85;2.60;;;;;;;19.73;93.10;100936.13;4790981;29;20404;-68
2023/08/26 11:04:44;;;;;;;7.78;2.13;;;;;;;19.64;85.04;100932.53;4807684;29;20051;-67
2023/08/26 11:07:16;;;;;;;5.28;1.83;;;;;;;19.55;89.25;100933.38;4790866;29;20075;-68
2023/08/26 11:09:44;;;;;;;5.35;2.65;;;;;;;19.76;86.59;100932.72;4800540;29;20051;-67
2023/08/26 11:12:28;;;;;;;4.25;2.05;;;;;;;19.72;84.26;100932.56;4772775;30;20051;-67
2023/08/26 11:15:06;;;;;;;9.05;2.15;;;;;;;19.71;86.60;100927.34;4788583;30;20066;-67
2023/08/26 11:17:34;;;;;;;5.72;2.20;;;;;;;19.64;85.57;100927.00;4788569;30;20055;-67
2023/08/26 11:20:18;;;;;;;5.93;2.70;;;;;;;19.53;84.57;100919.06;4799754;29;20039;-68
2023/08/26 11:22:46;;;;;;;4.63;1.70;;;;;;;19.50;85.23;100916.91;4808358;29;20507;-67
2023/08/26 11:25:15;;;;;;;3.45;1.88;;;;;;;19.48;84.13;100921.16;4811115;29;20062;-67